Time;durP1;ratioP1;P1;durP2;ratioP2;P2;SDS_P1;SDS_P2;PMS_P1;PMS_P2;Temp;Humidity;BMP_temperature;BMP_pressure;BME280_temperature;BME280_humidity;BME280_pressure;Samples;Min_cycle;Max_cycle;Signal;HPM_P1;HPM_P2
2022/06/04 00:00:40;;;;;;;;;;;;;;;17.19;58.94;100440.22;5112754;28;19931;-54
2022/06/04 00:03:08;;;;;;;;;;;;;;;17.14;59.23;100438.50;5112970;28;19924;-51
2022/06/04 00:05:36;;;;;;;;;;;;;;;17.11;59.09;100432.75;5112683;28;19924;-51
2022/06/04 00:08:05;;;;;;;;;;;;;;;17.10;59.10;100442.38;5112891;28;20372;-52
2022/06/04 00:16:02;;;;;;;;;;;;;;;16.97;59.17;100436.00;5119997;28;20384;-53
2022/06/04 00:18:29;;;;;;;;;;;;;;;16.92;59.27;100434.25;5113203;28;19924;-52
2022/06/04 00:20:56;;;;;;;;;;;;;;;16.86;59.23;100435.66;5113101;28;20379;-51
2022/06/04 00:23:25;;;;;;;;;;;;;;;16.80;59.62;100435.13;5113200;28;19931;-52
2022/06/04 00:25:53;;;;;;;;;;;;;;;16.77;59.65;100435.00;5112781;28;19927;-54
2022/06/04 00:28:21;;;;;;;;;;;;;;;16.70;59.74;100446.03;5112914;28;19946;-52
2022/06/04 00:30:49;;;;;;;;;;;;;;;16.64;60.00;100442.66;5112321;28;20380;-51
2022/06/04 00:33:16;;;;;;;;;;;;;;;16.57;60.31;100432.00;5112760;28;19924;-52
2022/06/04 00:35:44;;;;;;;;;;;;;;;16.51;60.61;100427.81;5111996;28;20307;-51
2022/06/04 00:38:12;;;;;;;;;;;;;;;16.45;60.72;100426.41;5113633;28;20291;-52
2022/06/04 00:40:47;;;;;;;;;;;;;;;16.37;60.78;100427.38;5116738;28;19923;-52
2022/06/04 00:43:14;;;;;;;;;;;;;;;16.32;61.15;100422.81;5116696;28;19924;-51
2022/06/04 00:45:59;;;;;;;;;;;;;;;16.30;61.16;100421.53;5116730;28;19932;-52
2022/06/04 00:48:27;;;;;;;;;;;;;;;16.27;61.31;100414.63;5116557;28;20287;-51
2022/06/04 00:50:54;;;;;;;;;;;;;;;16.26;61.29;100417.81;5116382;28;19924;-54
2022/06/04 00:53:21;;;;;;;;;;;;;;;16.23;61.36;100424.94;5116359;28;20360;-54
2022/06/04 00:55:55;;;;;;;;;;;;;;;16.21;61.14;100428.13;5116413;28;19924;-51
2022/06/04 00:58:39;;;;;;;;;;;;;;;16.20;61.21;100439.69;5116429;28;19923;-54
2022/06/04 01:01:10;;;;;;;;;;;;;;;16.17;61.19;100438.44;5116590;28;19927;-54
2022/06/04 01:03:43;;;;;;;;;;;;;;;16.12;61.19;100435.03;5116303;28;19934;-54
2022/06/04 01:06:19;;;;;;;;;;;;;;;16.07;61.38;100438.91;5116422;28;20364;-52
2022/06/04 01:08:57;;;;;;;;;;;;;;;16.06;61.27;100442.88;5116222;28;19924;-53
2022/06/04 01:11:32;;;;;;;;;;;;;;;16.05;61.40;100448.88;5116507;28;19938;-51
2022/06/04 01:14:05;;;;;;;;;;;;;;;15.98;61.50;100453.06;5116640;28;19924;-51
2022/06/04 01:16:36;;;;;;;;;;;;;;;15.98;61.41;100457.84;5116326;28;20411;-51
2022/06/04 01:19:15;;;;;;;;;;;;;;;15.96;61.42;100451.78;5116055;28;19931;-51
2022/06/04 01:21:52;;;;;;;;;;;;;;;15.91;61.76;100460.44;5115763;28;19924;-51
2022/06/04 01:24:25;;;;;;;;;;;;;;;15.83;61.89;100465.00;5116214;28;19935;-51
2022/06/04 01:26:59;;;;;;;;;;;;;;;15.77;62.20;100460.78;5115937;28;19934;-51
2022/06/04 01:29:29;;;;;;;;;;;;;;;15.73;62.35;100460.69;5116260;28;19930;-52
2022/06/04 01:32:01;;;;;;;;;;;;;;;15.72;62.54;100458.22;5115475;28;19928;-52
2022/06/04 01:34:32;;;;;;;;;;;;;;;15.73;62.37;100466.28;5116295;28;19934;-52
2022/06/04 01:37:01;;;;;;;;;;;;;;;15.70;62.62;100481.00;5115433;28;19923;-52
2022/06/04 01:41:03;;;;;;;;;;;;;;;15.67;62.89;100481.69;5116110;28;19935;-52
2022/06/04 01:42:19;;;;;;;;;;;;;;;15.64;63.23;100488.00;5115696;28;19935;-53
2022/06/04 01:44:47;;;;;;;;;;;;;;;15.69;63.13;100489.78;5115304;28;20368;-52
2022/06/04 01:47:15;;;;;;;;;;;;;;;15.69;63.31;100487.78;5115468;28;19924;-52
2022/06/04 01:49:45;;;;;;;;;;;;;;;15.68;63.21;100483.31;5114591;28;19923;-52
2022/06/04 01:52:15;;;;;;;;;;;;;;;15.67;63.89;100486.50;5115433;28;19930;-52
2022/06/04 01:54:47;;;;;;;;;;;;;;;15.73;63.26;100485.94;5114663;28;19930;-53
2022/06/04 01:57:18;;;;;;;;;;;;;;;15.76;63.46;100484.44;5115440;28;19924;-52
2022/06/04 01:59:49;;;;;;;;;;;;;;;15.77;63.21;100486.06;5115406;28;19931;-52
2022/06/04 02:02:21;;;;;;;;;;;;;;;15.77;63.03;100489.69;5115582;28;19923;-52
2022/06/04 02:04:53;;;;;;;;;;;;;;;15.76;63.05;100487.22;5115370;28;19928;-52
2022/06/04 02:07:33;;;;;;;;;;;;;;;15.75;62.96;100491.22;5114771;28;19924;-52
2022/06/04 02:10:02;;;;;;;;;;;;;;;15.71;63.24;100491.06;5115433;28;19932;-52
2022/06/04 02:12:33;;;;;;;;;;;;;;;15.71;63.29;100488.25;5114866;28;19931;-53
2022/06/04 02:15:04;;;;;;;;;;;;;;;15.71;63.29;100499.50;5115206;28;19924;-55
2022/06/04 02:17:32;;;;;;;;;;;;;;;15.71;63.10;100498.69;5114908;28;19923;-54
2022/06/04 02:19:59;;;;;;;;;;;;;;;15.72;62.84;100492.72;5115135;28;19930;-52
2022/06/04 02:22:26;;;;;;;;;;;;;;;15.73;62.75;100494.38;5115094;28;20383;-54
2022/06/04 02:24:53;;;;;;;;;;;;;;;15.72;62.85;100489.09;5114994;28;19924;-53
2022/06/04 02:27:20;;;;;;;;;;;;;;;15.64;63.10;100504.84;5114694;28;19947;-52
2022/06/04 02:29:47;;;;;;;;;;;;;;;15.58;63.24;100500.63;5114803;28;19930;-53
2022/06/04 02:32:21;;;;;;;;;;;;;;;15.60;62.62;100493.50;5114988;28;19923;-52
2022/06/04 02:34:56;;;;;;;;;;;;;;;15.55;62.91;100501.31;5115038;28;19927;-52
2022/06/04 02:37:26;;;;;;;;;;;;;;;15.50;63.07;100495.94;5114492;28;19924;-53
2022/06/04 02:39:56;;;;;;;;;;;;;;;15.45;63.00;100496.97;5114521;28;19924;-52
2022/06/04 02:42:27;;;;;;;;;;;;;;;15.37;63.26;100479.06;5114824;28;19931;-52
2022/06/04 02:44:57;;;;;;;;;;;;;;;15.37;63.13;100486.66;5114681;28;19923;-52
2022/06/04 02:47:27;;;;;;;;;;;;;;;15.30;63.35;100487.22;5114103;28;19924;-54
2022/06/04 02:50:01;;;;;;;;;;;;;;;15.21;63.63;100489.31;5114650;28;20360;-55
2022/06/04 02:52:31;;;;;;;;;;;;;;;15.16;63.78;100492.31;5114481;28;19930;-55
2022/06/04 02:55:01;;;;;;;;;;;;;;;15.07;63.94;100485.97;5113982;28;19923;-55
2022/06/04 02:57:31;;;;;;;;;;;;;;;15.04;63.78;100475.47;5114351;28;19924;-52
2022/06/04 03:00:00;;;;;;;;;;;;;;;15.00;64.03;100469.69;5115303;28;19927;-52
2022/06/04 03:02:30;;;;;;;;;;;;;;;14.96;64.76;100465.94;5112928;28;20296;-52
2022/06/04 03:04:57;;;;;;;;;;;;;;;14.90;65.10;100464.50;5114120;28;19931;-55
2022/06/04 03:07:25;;;;;;;;;;;;;;;14.88;65.16;100472.44;5113893;28;19924;-55
2022/06/04 03:09:55;;;;;;;;;;;;;;;14.87;65.07;100474.44;5113901;28;19931;-53
2022/06/04 03:12:22;;;;;;;;;;;;;;;14.87;65.15;100468.84;5113815;28;19923;-52
2022/06/04 03:14:49;;;;;;;;;;;;;;;14.85;65.27;100468.34;5113428;28;19934;-53
2022/06/04 03:17:17;;;;;;;;;;;;;;;14.86;65.05;100467.19;5113602;28;19924;-53
2022/06/04 03:19:45;;;;;;;;;;;;;;;14.88;64.69;100478.88;5113572;28;19928;-54
2022/06/04 03:22:12;;;;;;;;;;;;;;;14.90;64.72;100464.50;5113900;28;19923;-55
2022/06/04 03:24:39;;;;;;;;;;;;;;;14.91;64.40;100461.38;5114011;28;19951;-53
2022/06/04 03:27:06;;;;;;;;;;;;;;;14.86;64.80;100463.56;5113552;28;20303;-52
2022/06/04 03:29:33;;;;;;;;;;;;;;;14.85;64.86;100462.75;5114237;28;19931;-52
2022/06/04 03:32:00;;;;;;;;;;;;;;;14.81;65.10;100473.00;5113319;28;19927;-55
2022/06/04 03:34:27;;;;;;;;;;;;;;;14.87;64.65;100474.44;5113669;28;19924;-54
2022/06/04 03:36:56;;;;;;;;;;;;;;;14.91;64.76;100460.53;5112831;28;19931;-52
2022/06/04 03:39:23;;;;;;;;;;;;;;;14.96;64.82;100463.94;5113493;28;19931;-52
2022/06/04 03:41:50;;;;;;;;;;;;;;;15.00;64.36;100450.88;5113235;28;19928;-53
2022/06/04 03:44:17;;;;;;;;;;;;;;;15.05;64.39;100461.06;5113589;28;19924;-54
2022/06/04 03:46:44;;;;;;;;;;;;;;;15.07;64.27;100455.94;5113375;28;19924;-55
2022/06/04 03:49:11;;;;;;;;;;;;;;;15.12;64.24;100457.69;5113830;28;19924;-53
2022/06/04 03:51:39;;;;;;;;;;;;;;;15.18;63.84;100457.16;5113635;28;20284;-53
2022/06/04 03:54:08;;;;;;;;;;;;;;;15.26;63.57;100461.00;5113101;28;20303;-53
2022/06/04 03:56:35;;;;;;;;;;;;;;;15.29;63.48;100454.72;5113587;28;19931;-51
2022/06/04 03:59:02;;;;;;;;;;;;;;;15.39;63.34;100468.31;5113178;28;19924;-53
2022/06/04 04:01:30;;;;;;;;;;;;;;;15.43;63.36;100471.22;5113166;28;19924;-52
2022/06/04 04:03:57;;;;;;;;;;;;;;;15.46;63.36;100464.94;5113213;28;19924;-54
2022/06/04 04:06:26;;;;;;;;;;;;;;;15.50;63.49;100476.28;5113094;28;19931;-55
2022/06/04 04:08:53;;;;;;;;;;;;;;;15.56;63.40;100474.88;5112762;28;19924;-53
2022/06/04 04:11:23;;;;;;;;;;;;;;;15.64;63.23;100496.41;5113328;28;19935;-52
2022/06/04 04:13:51;;;;;;;;;;;;;;;15.70;62.85;100492.22;5112842;28;20287;-53
2022/06/04 04:16:18;;;;;;;;;;;;;;;15.78;62.60;100493.31;5113388;28;19924;-52
2022/06/04 04:18:45;;;;;;;;;;;;;;;15.83;62.69;100490.28;5113123;28;19923;-54
2022/06/04 04:21:13;;;;;;;;;;;;;;;15.89;62.46;100496.50;5113096;28;20304;-55
2022/06/04 04:23:41;;;;;;;;;;;;;;;15.98;62.21;100506.47;5113085;28;19928;-52
2022/06/04 04:26:10;;;;;;;;;;;;;;;16.00;62.18;100504.13;5113056;28;19924;-52
2022/06/04 04:28:38;;;;;;;;;;;;;;;16.03;61.82;100511.03;5113074;28;19924;-52
2022/06/04 04:31:10;;;;;;;;;;;;;;;16.13;61.71;100515.38;5113030;28;19935;-52
2022/06/04 04:33:38;;;;;;;;;;;;;;;16.20;61.25;100493.09;5113066;28;20364;-55
2022/06/04 04:36:05;;;;;;;;;;;;;;;16.23;61.36;100492.38;5112378;28;20411;-53
2022/06/04 04:38:32;;;;;;;;;;;;;;;16.31;61.04;100499.06;5112828;28;19923;-53
2022/06/04 04:41:00;;;;;;;;;;;;;;;16.38;60.77;100488.06;5112930;28;20391;-55
2022/06/04 04:43:27;;;;;;;;;;;;;;;16.42;60.78;100477.72;5113098;28;19935;-53
2022/06/04 04:46:01;;;;;;;;;;;;;;;16.45;60.61;100482.66;5112391;28;20292;-54
2022/06/04 04:48:28;;;;;;;;;;;;;;;16.50;60.26;100488.03;5112920;28;19924;-53
2022/06/04 04:50:55;;;;;;;;;;;;;;;16.65;60.00;100492.09;5112625;28;19924;-53
2022/06/04 04:53:23;;;;;;;;;;;;;;;16.75;59.59;100488.78;5112669;28;19930;-52
2022/06/04 04:55:50;;;;;;;;;;;;;;;16.80;59.55;100494.19;5112742;28;19931;-53
2022/06/04 04:58:17;;;;;;;;;;;;;;;16.87;59.36;100487.97;5112851;28;19924;-53
2022/06/04 05:00:44;;;;;;;;;;;;;;;16.96;59.33;100502.69;5112649;28;19924;-53
2022/06/04 05:03:13;;;;;;;;;;;;;;;17.03;58.63;100502.91;5112666;28;19930;-54
2022/06/04 05:05:40;;;;;;;;;;;;;;;17.10;58.57;100507.13;5112869;28;19931;-53
2022/06/04 05:08:07;;;;;;;;;;;;;;;17.21;58.22;100503.41;5112292;28;19935;-53
2022/06/04 05:10:34;;;;;;;;;;;;;;;17.31;58.11;100507.72;5112647;28;19923;-52
2022/06/04 05:13:01;;;;;;;;;;;;;;;17.40;58.06;100511.19;5112665;28;19924;-53
2022/06/04 05:15:29;;;;;;;;;;;;;;;17.57;57.69;100506.41;5112889;28;20291;-55
2022/06/04 05:17:56;;;;;;;;;;;;;;;17.68;57.77;100513.16;5112156;28;19924;-53
2022/06/04 05:20:24;;;;;;;;;;;;;;;17.76;57.14;100508.50;5111972;28;20306;-52
2022/06/04 05:22:51;;;;;;;;;;;;;;;17.81;56.76;100514.69;5112149;28;19923;-52
2022/06/04 05:25:18;;;;;;;;;;;;;;;17.84;56.39;100522.44;5113648;28;19924;-52
2022/06/04 05:27:45;;;;;;;;;;;;;;;17.89;56.58;100526.19;5116130;28;19931;-53
2022/06/04 05:30:16;;;;;;;;;;;;;;;17.97;56.27;100525.19;5115938;28;20024;-52
2022/06/04 05:32:43;;;;;;;;;;;;;;;18.09;55.99;100525.09;5115803;28;19924;-52
2022/06/04 05:35:13;;;;;;;;;;;;;;;18.30;55.38;100524.00;5115741;28;20426;-55
2022/06/04 05:37:42;;;;;;;;;;;;;;;18.40;55.16;100534.72;5116037;28;19931;-53
2022/06/04 05:40:09;;;;;;;;;;;;;;;18.59;54.88;100542.41;5115911;28;19935;-55
2022/06/04 05:42:36;;;;;;;;;;;;;;;18.68;54.49;100548.66;5115596;28;19930;-52
2022/06/04 05:45:04;;;;;;;;;;;;;;;18.53;54.01;100549.53;5115470;28;19924;-55
2022/06/04 05:47:31;;;;;;;;;;;;;;;18.71;54.48;100544.28;5115808;28;19931;-54
2022/06/04 05:49:58;;;;;;;;;;;;;;;18.81;54.30;100535.28;5115721;28;19950;-52
2022/06/04 05:52:25;;;;;;;;;;;;;;;18.97;53.88;100555.81;5115702;28;19924;-51
2022/06/04 05:54:54;;;;;;;;;;;;;;;19.08;53.15;100558.03;5114873;28;19935;-52
2022/06/04 05:57:21;;;;;;;;;;;;;;;19.16;52.90;100552.16;5115748;28;20406;-52
2022/06/04 05:59:49;;;;;;;;;;;;;;;19.31;52.66;100549.66;5115490;28;20352;-53
2022/06/04 06:02:16;;;;;;;;;;;;;;;19.42;52.58;100551.50;5115654;28;19932;-52
2022/06/04 06:04:43;;;;;;;;;;;;;;;19.52;51.99;100552.09;5115571;28;19924;-51
2022/06/04 06:07:10;;;;;;;;;;;;;;;19.64;52.34;100551.94;5115185;28;19931;-52
2022/06/04 06:09:37;;;;;;;;;;;;;;;19.82;52.17;100563.59;5115774;28;19931;-55
2022/06/04 06:12:06;;;;;;;;;;;;;;;19.95;51.12;100558.56;5114758;28;19935;-52
2022/06/04 06:14:33;;;;;;;;;;;;;;;20.03;50.63;100558.34;5115331;28;19924;-52
2022/06/04 06:17:00;;;;;;;;;;;;;;;20.23;50.47;100561.91;5114974;28;19924;-52
2022/06/04 06:19:29;;;;;;;;;;;;;;;20.36;50.12;100564.53;5115281;28;20283;-55
2022/06/04 06:21:56;;;;;;;;;;;;;;;20.57;50.13;100555.56;5114762;28;19924;-52
2022/06/04 06:24:23;;;;;;;;;;;;;;;20.73;49.53;100550.59;5115191;28;19935;-52
2022/06/04 06:26:54;;;;;;;;;;;;;;;20.65;49.31;100555.31;5115039;28;19923;-52
2022/06/04 06:29:24;;;;;;;;;;;;;;;20.78;49.32;100555.09;5115133;28;20283;-53
2022/06/04 06:31:51;;;;;;;;;;;;;;;20.76;49.56;100557.50;5114777;28;19923;-53
2022/06/04 06:34:19;;;;;;;;;;;;;;;20.98;48.62;100550.94;5114922;28;20287;-53
2022/06/04 06:36:47;;;;;;;;;;;;;;;21.18;47.61;100559.28;5114049;28;19931;-53
2022/06/04 06:39:14;;;;;;;;;;;;;;;21.24;47.06;100555.72;5114637;28;20367;-54
2022/06/04 06:41:41;;;;;;;;;;;;;;;21.36;46.77;100563.16;5114170;28;19924;-54
2022/06/04 06:44:10;;;;;;;;;;;;;;;21.48;46.81;100557.28;5114469;28;19924;-52
2022/06/04 06:46:42;;;;;;;;;;;;;;;21.59;46.34;100565.09;5114562;28;19931;-55
2022/06/04 06:49:11;;;;;;;;;;;;;;;21.66;46.22;100568.81;5114487;28;20360;-54
2022/06/04 06:51:40;;;;;;;;;;;;;;;21.61;45.98;100572.00;5114676;28;20419;-52
2022/06/04 06:54:08;;;;;;;;;;;;;;;21.63;45.86;100574.44;5113770;28;19930;-53
2022/06/04 06:56:37;;;;;;;;;;;;;;;21.89;45.53;100565.81;5114492;28;19923;-52
2022/06/04 06:59:05;;;;;;;;;;;;;;;22.03;45.63;100567.16;5114381;28;20372;-56
2022/06/04 07:01:32;;;;;;;;;;;;;;;22.00;45.01;100563.06;5114179;28;20320;-53
2022/06/04 07:04:01;;;;;;;;;;;;;;;22.03;44.89;100564.34;5113821;28;19939;-53
2022/06/04 07:06:30;;;;;;;;;;;;;;;22.21;45.38;100559.63;5114181;28;19924;-53
2022/06/04 07:08:58;;;;;;;;;;;;;;;22.23;44.84;100564.94;5113948;28;19924;-52
2022/06/04 07:11:25;;;;;;;;;;;;;;;22.37;44.75;100567.09;5113950;28;19924;-53
2022/06/04 07:13:52;;;;;;;;;;;;;;;22.53;44.58;100563.97;5114132;28;19924;-53
2022/06/04 07:16:19;;;;;;;;;;;;;;;22.84;43.65;100571.06;5113695;28;19924;-53
2022/06/04 07:18:46;;;;;;;;;;;;;;;22.88;43.00;100569.06;5114134;28;20403;-53
2022/06/04 07:21:17;;;;;;;;;;;;;;;23.00;43.12;100565.91;5113876;28;19924;-52
2022/06/04 07:23:44;;;;;;;;;;;;;;;23.25;43.16;100566.06;5114108;28;20418;-54
2022/06/04 07:26:12;;;;;;;;;;;;;;;23.48;42.39;100574.28;5113816;28;19931;-53
2022/06/04 07:28:39;;;;;;;;;;;;;;;23.84;41.41;100582.94;5113759;28;19947;-53
2022/06/04 07:31:06;;;;;;;;;;;;;;;23.71;41.46;100581.66;5113333;28;19930;-55
2022/06/04 07:33:33;;;;;;;;;;;;;;;24.24;41.55;100586.66;5113804;28;19923;-54
2022/06/04 07:36:01;;;;;;;;;;;;;;;24.53;40.27;100583.84;5113035;28;19923;-51
2022/06/04 07:38:29;;;;;;;;;;;;;;;24.79;40.22;100587.47;5113763;28;19946;-55
2022/06/04 07:40:56;;;;;;;;;;;;;;;25.12;39.14;100577.63;5113446;28;20386;-51
2022/06/04 07:43:23;;;;;;;;;;;;;;;25.20;38.92;100572.69;5113409;28;19931;-51
2022/06/04 07:45:50;;;;;;;;;;;;;;;25.42;39.33;100568.56;5113656;28;19924;-53
2022/06/04 07:48:17;;;;;;;;;;;;;;;25.56;38.54;100566.91;5112101;28;19928;-51
2022/06/04 07:50:44;;;;;;;;;;;;;;;25.76;38.30;100575.75;5113517;28;19924;-52
2022/06/04 07:53:11;;;;;;;;;;;;;;;26.11;38.20;100577.59;5113071;28;19923;-54
2022/06/04 07:55:42;;;;;;;;;;;;;;;26.24;38.17;100578.69;5113412;28;19924;-54
2022/06/04 07:58:09;;;;;;;;;;;;;;;26.66;37.49;100575.94;5112743;28;19924;-53
2022/06/04 08:00:38;;;;;;;;;;;;;;;27.28;36.21;100582.66;5113245;28;19923;-52
2022/06/04 08:03:06;;;;;;;;;;;;;;;27.73;35.31;100565.28;5113033;28;19923;-54
2022/06/04 08:05:33;;;;;;;;;;;;;;;28.32;34.82;100576.25;5113206;28;19924;-54
2022/06/04 08:08:00;;;;;;;;;;;;;;;28.71;33.70;100580.53;5112641;28;19923;-51
2022/06/04 08:10:27;;;;;;;;;;;;;;;28.83;33.91;100581.16;5112977;28;19923;-51
2022/06/04 08:12:55;;;;;;;;;;;;;;;28.79;32.95;100580.41;5112719;28;19931;-52
2022/06/04 08:15:31;;;;;;;;;;;;;;;28.57;33.54;100575.06;5112889;28;19924;-54
2022/06/04 08:18:00;;;;;;;;;;;;;;;28.41;33.67;100586.34;5112981;28;19954;-53
2022/06/04 08:20:27;;;;;;;;;;;;;;;28.29;34.00;100585.75;5112890;28;19923;-52
2022/06/04 08:22:55;;;;;;;;;;;;;;;28.37;33.92;100583.56;5113145;28;19924;-54
2022/06/04 08:25:22;;;;;;;;;;;;;;;28.25;34.33;100582.13;5112885;28;19931;-54
2022/06/04 08:27:56;;;;;;;;;;;;;;;28.11;34.13;100588.06;5113056;28;20296;-52
2022/06/04 08:30:23;;;;;;;;;;;;;;;28.27;34.12;100584.56;5112706;28;19931;-55
2022/06/04 08:32:53;;;;;;;;;;;;;;;28.20;34.57;100579.75;5111683;28;19924;-56
2022/06/04 08:35:23;;;;;;;;;;;;;;;28.04;34.60;100588.19;5106929;28;19939;-53
2022/06/04 08:37:50;;;;;;;;;;;;;;;27.85;34.79;100589.66;5111124;28;20384;-52
2022/06/04 08:40:28;;;;;;;;;;;;;;;27.99;34.85;100600.13;5112811;28;20395;-56
2022/06/04 08:43:04;;;;;;;;;;;;;;;27.98;35.07;100595.66;5113009;28;19924;-53
2022/06/04 08:45:32;;;;;;;;;;;;;;;28.00;34.77;100598.88;5112885;28;19931;-53
2022/06/04 08:47:59;;;;;;;;;;;;;;;28.14;34.17;100599.47;5112788;28;19935;-53
2022/06/04 08:50:32;;;;;;;;;;;;;;;28.70;33.21;100598.97;5113180;28;19935;-54
2022/06/04 08:53:00;;;;;;;;;;;;;;;28.77;33.34;100605.84;5112856;28;20372;-53
2022/06/04 08:58:29;;;;;;;;;;;;;;;29.12;32.58;100610.13;5112688;28;20292;-56
2022/06/04 09:00:58;;;;;;;;;;;;;;;29.55;31.89;100598.59;5116787;28;19941;-53
2022/06/04 09:03:30;;;;;;;;;;;;;;;29.64;32.09;100597.97;5116384;28;19924;-53
2022/06/04 09:06:09;;;;;;;;;;;;;;;29.68;32.09;100610.19;5116819;28;19924;-53
2022/06/04 09:08:40;;;;;;;;;;;;;;;30.00;31.21;100610.78;5116878;28;19934;-53
2022/06/04 09:11:11;;;;;;;;;;;;;;;30.14;31.75;100605.50;5116576;28;19931;-54
2022/06/04 09:13:45;;;;;;;;;;;;;;;29.18;32.32;100619.84;5116635;28;19924;-53
2022/06/04 09:16:19;;;;;;;;;;;;;;;29.41;32.12;100621.84;5116140;28;20368;-54
2022/06/04 09:18:49;;;;;;;;;;;;;;;29.31;32.72;100628.59;5115826;28;19934;-51
2022/06/04 09:21:16;;;;;;;;;;;;;;;29.68;31.75;100624.56;5116067;28;20046;-53
2022/06/04 09:23:50;;;;;;;;;;;;;;;30.12;31.27;100622.38;5115990;28;19924;-54
2022/06/04 09:26:24;;;;;;;;;;;;;;;31.29;30.08;100616.13;5115620;28;19924;-55
2022/06/04 09:28:56;;;;;;;;;;;;;;;32.45;28.28;100617.16;5116392;28;19931;-55
2022/06/04 09:31:28;;;;;;;;;;;;;;;33.31;27.04;100619.97;5116101;28;19928;-54
2022/06/04 09:33:57;;;;;;;;;;;;;;;34.57;25.30;100621.66;5116047;28;19924;-54
2022/06/04 09:36:25;;;;;;;;;;;;;;;36.09;23.50;100608.56;5116056;28;19935;-52
2022/06/04 09:38:54;;;;;;;;;;;;;;;36.91;23.25;100614.44;5115966;28;20382;-54
2022/06/04 09:41:22;;;;;;;;;;;;;;;37.43;21.70;100612.09;5115840;28;19924;-55
2022/06/04 09:44:01;;;;;;;;;;;;;;;36.86;22.48;100609.34;5115934;28;19924;-54
2022/06/04 09:46:28;;;;;;;;;;;;;;;36.24;23.09;100611.59;5115717;28;20287;-53
2022/06/04 09:48:56;;;;;;;;;;;;;;;36.71;22.82;100607.19;5115474;28;20288;-52
2022/06/04 09:51:25;;;;;;;;;;;;;;;36.85;21.90;100596.91;5115347;28;19947;-54
2022/06/04 09:53:55;;;;;;;;;;;;;;;36.90;22.40;100615.75;5115340;28;20402;-52
2022/06/04 09:56:30;;;;;;;;;;;;;;;36.85;22.62;100614.31;5114844;28;19924;-54
2022/06/04 09:59:07;;;;;;;;;;;;;;;36.30;22.55;100615.44;5115673;28;19927;-53
2022/06/04 10:01:36;;;;;;;;;;;;;;;35.66;23.58;100606.94;5115690;28;19924;-53
2022/06/04 10:04:04;;;;;;;;;;;;;;;35.03;24.34;100610.16;5115305;28;19924;-55
2022/06/04 10:06:31;;;;;;;;;;;;;;;34.88;24.25;100609.16;5115867;27;20277;-56
2022/06/04 10:11:51;;;;;;;;;;;;;;;34.08;24.69;100620.31;5116050;28;19928;-53
2022/06/04 10:14:27;;;;;;;;;;;;;;;33.25;25.87;100627.63;5114898;28;19931;-56
2022/06/04 10:16:56;;;;;;;;;;;;;;;32.69;26.22;100624.16;5115368;28;19923;-53
2022/06/04 10:19:23;;;;;;;;;;;;;;;32.21;27.61;100626.16;5115258;28;19924;-53
2022/06/04 10:22:02;;;;;;;;;;;;;;;32.27;27.27;100630.06;5114955;28;19923;-54
2022/06/04 10:24:30;;;;;;;;;;;;;;;31.98;27.73;100637.97;5114870;28;19935;-53
2022/06/04 10:27:03;;;;;;;;;;;;;;;31.79;27.82;100634.03;5114468;28;19939;-51
2022/06/04 10:29:42;;;;;;;;;;;;;;;31.81;28.15;100620.78;5114780;28;20371;-53
2022/06/04 10:32:21;;;;;;;;;;;;;;;31.99;27.91;100625.25;5114624;28;19924;-53
2022/06/04 10:34:54;;;;;;;;;;;;;;;32.27;27.73;100621.41;5114086;28;19931;-51
2022/06/04 10:37:29;;;;;;;;;;;;;;;32.44;27.21;100622.09;5114165;28;20344;-52
2022/06/04 10:40:02;;;;;;;;;;;;;;;32.66;27.20;100618.53;5113962;28;19924;-52
2022/06/04 10:42:37;;;;;;;;;;;;;;;32.82;27.04;100617.56;5114271;28;19923;-53
2022/06/04 10:45:11;;;;;;;;;;;;;;;32.47;27.58;100618.31;5114760;28;20295;-53
2022/06/04 10:47:44;;;;;;;;;;;;;;;32.36;27.85;100624.44;5114525;28;19923;-51
2022/06/04 10:50:20;;;;;;;;;;;;;;;32.20;27.54;100633.19;5113882;28;20339;-55
2022/06/04 10:52:49;;;;;;;;;;;;;;;31.90;27.32;100635.34;5114397;28;19934;-55
2022/06/04 10:55:23;;;;;;;;;;;;;;;31.93;27.80;100637.28;5113772;28;19924;-52
2022/06/04 10:57:56;;;;;;;;;;;;;;;32.24;27.75;100636.78;5113909;28;19930;-52
2022/06/04 11:00:25;;;;;;;;;;;;;;;32.44;27.34;100629.94;5113937;28;20276;-52
2022/06/04 11:02:58;;;;;;;;;;;;;;;32.76;27.39;100629.72;5113901;28;19930;-51
2022/06/04 11:05:27;;;;;;;;;;;;;;;33.12;26.75;100628.47;5113790;28;19924;-52
2022/06/04 11:07:57;;;;;;;;;;;;;;;33.00;26.51;100628.50;5114140;28;20273;-53
2022/06/04 11:10:28;;;;;;;;;;;;;;;33.14;26.45;100636.69;5113565;28;19923;-52
2022/06/04 11:13:00;;;;;;;;;;;;;;;33.11;26.76;100629.72;5113837;28;20296;-55
2022/06/04 11:15:30;;;;;;;;;;;;;;;32.92;26.30;100619.28;5113848;28;19927;-54
2022/06/04 11:18:03;;;;;;;;;;;;;;;32.72;26.77;100625.34;5114125;28;19983;-55
2022/06/04 11:20:31;;;;;;;;;;;;;;;32.92;26.45;100625.03;5113668;28;20394;-52
2022/06/04 11:23:06;;;;;;;;;;;;;;;33.22;26.17;100617.00;5112868;28;19928;-54
2022/06/04 11:25:35;;;;;;;;;;;;;;;33.08;26.50;100627.00;5113747;28;19947;-52
2022/06/04 11:28:04;;;;;;;;;;;;;;;33.03;25.62;100625.47;5113876;28;19924;-53
2022/06/04 11:30:40;;;;;;;;;;;;;;;33.92;25.64;100630.03;5113712;28;19924;-54
2022/06/04 11:33:15;;;;;;;;;;;;;;;34.58;24.71;100626.13;5113730;28;19928;-55
2022/06/04 11:35:45;;;;;;;;;;;;;;;35.21;24.38;100620.16;5113584;28;19931;-52
2022/06/04 11:38:21;;;;;;;;;;;;;;;35.95;23.48;100624.59;5113270;28;19930;-51
2022/06/04 11:40:52;;;;;;;;;;;;;;;36.30;22.71;100621.22;5113729;28;20370;-54
2022/06/04 11:43:22;;;;;;;;;;;;;;;36.57;22.61;100613.69;5113009;28;19924;-53
2022/06/04 11:45:55;;;;;;;;;;;;;;;36.76;22.44;100612.28;5113662;28;19931;-52
2022/06/04 11:48:37;;;;;;;;;;;;;;;36.32;22.49;100615.75;5113257;28;19924;-56
2022/06/04 11:51:12;;;;;;;;;;;;;;;36.85;22.64;100614.31;5111622;28;20368;-54
2022/06/04 11:53:46;;;;;;;;;;;;;;;37.62;21.33;100617.75;5113174;28;19931;-55
2022/06/04 11:56:18;;;;;;;;;;;;;;;38.10;21.14;100617.56;5113364;28;19924;-52
2022/06/04 11:59:03;;;;;;;;;;;;;;;38.36;20.96;100621.41;5113438;28;19931;-54
2022/06/04 12:01:31;;;;;;;;;;;;;;;38.48;20.88;100621.59;5113091;28;19923;-54
2022/06/04 12:04:02;;;;;;;;;;;;;;;38.77;19.91;100615.66;5112868;28;19923;-53
2022/06/04 12:06:35;;;;;;;;;;;;;;;38.61;21.49;100624.97;5113131;28;19947;-54
2022/06/04 12:09:07;;;;;;;;;;;;;;;38.79;19.89;100609.34;5113078;28;19931;-53
2022/06/04 12:11:37;;;;;;;;;;;;;;;39.04;19.46;100612.84;5113158;28;19924;-53
2022/06/04 12:14:10;;;;;;;;;;;;;;;39.58;19.33;100616.94;5112712;28;20311;-53
2022/06/04 12:16:39;;;;;;;;;;;;;;;40.01;18.33;100609.66;5113389;28;19928;-55
2022/06/04 12:25:00;;;;;;;;;;;;;;;38.21;19.62;100631.47;5119189;28;19931;-56
2022/06/04 12:27:27;;;;;;;;;;;;;;;38.38;20.18;100620.91;5113077;28;20368;-54
2022/06/04 12:29:55;;;;;;;;;;;;;;;38.93;19.93;100616.41;5112731;28;20296;-55
2022/06/04 12:32:31;;;;;;;;;;;;;;;38.59;19.78;100618.84;5112531;28;19924;-53
2022/06/04 12:35:03;;;;;;;;;;;;;;;39.07;18.83;100618.47;5115247;28;20303;-52
2022/06/04 12:37:34;;;;;;;;;;;;;;;38.84;19.10;100604.91;5116886;28;19924;-53
2022/06/04 12:40:13;;;;;;;;;;;;;;;38.95;19.09;100605.03;5116779;28;19924;-56
2022/06/04 12:42:51;;;;;;;;;;;;;;;39.09;19.24;100598.34;5117297;28;20380;-52
2022/06/04 12:45:35;;;;;;;;;;;;;;;39.08;19.51;100608.44;5116556;28;19935;-52
2022/06/04 12:48:22;;;;;;;;;;;;;;;38.41;19.39;100595.78;5116933;28;19935;-53
2022/06/04 12:50:51;;;;;;;;;;;;;;;37.63;20.12;100596.09;5116428;28;19924;-52
2022/06/04 12:53:22;;;;;;;;;;;;;;;36.71;20.87;100598.47;5116241;28;19930;-52
2022/06/04 12:55:51;;;;;;;;;;;;;;;36.56;20.98;100597.56;5116651;28;19930;-53
2022/06/04 12:58:36;;;;;;;;;;;;;;;36.67;21.57;100597.06;5116352;28;20407;-52
2022/06/04 13:01:04;;;;;;;;;;;;;;;37.06;21.29;100606.56;5116516;28;20368;-54
2022/06/04 13:03:33;;;;;;;;;;;;;;;37.02;21.01;100600.16;5116017;28;19923;-51
2022/06/04 13:06:02;;;;;;;;;;;;;;;36.60;21.63;100601.06;5115881;28;19924;-53